Terminal Aerodrome Forecast
Issued by NWS

Current Version | Previous Version | Text Only | Print | Product List | Glossary Off
Versions: 1 2 3 4 5 6 7 8 9 10 11 12

000
FTUS41 KILN 160500
TAFLCK
TAF
KLCK 160529Z 1606/1706 VRB03KT P6SM SKC
     FM161400 11008KT P6SM SCT250
     FM170000 11006KT P6SM BKN250=

USA.gov is the U.S. government's official web portal to all federal, state and local government web resources and services.